METAR Data
IDs: Format: Raw Decoded Include TAF

Data at: 2135 UTC 18 Sep 2018

KCVG 182052Z 26008KT 10SM FEW055 FEW100 32/19 A2991 RMK AO2 SLP117 MDT CU N T03170189 56013
KCVG 181952Z 25006KT 10SM FEW046 FEW100 32/21 A2992 RMK AO2 SLP121 MDT CU ALQDS T03170206
KCVG 181852Z 22006KT 10SM FEW040 FEW150 31/22 A2994 RMK AO2 SLP125 T03110217
KCVG 181752Z 20007KT 10SM FEW060 FEW080 31/21 A2995 RMK AO2 SLP132 MDT CU NW T03060206 10306 20189 58010
KCVG 181652Z 00000KT 10SM SCT065 SCT080 29/21 A2997 RMK AO2 SLP137 T02940211
KCVG 181552Z 00000KT 10SM SCT065 SCT110 29/22 A2997 RMK AO2 SLP139 MDT CU SW T02890222
KCVG 181452Z VRB03KT 10SM SCT075 BKN110 28/21 A2998 RMK AO2 SLP142 T02780211 51004
KCVG 181352Z 00000KT 10SM FEW070 BKN100 26/22 A2998 RMK AO2 SLP141 T02560222
KCVG 181252Z 20003KT 10SM FEW075 21/21 A2997 RMK AO2 SLP141 T02110211
KCVG 181152Z 00000KT 6SM BR FEW065 19/19 A2997 RMK AO2 SLP140 TWR VIS 10 DENSE MIFG SW S 70014 T01890189 10200 20183 53006
KCVG 181052Z 22003KT 5SM BCFG BR FEW075 18/18 A2996 RMK AO2 SLP137 TWR VIS 10 T01830183
KCVG 181047Z 22004KT 1 1/2SM BCFG BR CLR 19/19 A2996 RMK AO2 TWR VIS 10
KCVG 180952Z 18003KT 5SM BCFG BR FEW070 19/19 A2995 RMK AO2 SLP133 T01890189
KCVG 180852Z 00000KT 6SM BR FEW070 20/19 A2995 RMK AO2 SLP133 BCFG T02000194 53001
KCVG 180752Z 20003KT 7SM SCT075 19/19 A2995 RMK AO2 SLP132 BCFG S-W T01940194
KCVG 180652Z 00000KT 9SM CLR 19/19 A2995 RMK AO2 SLP133 MIFG SW-W T01940194
KCVG 180552Z 23003KT 9SM CLR 19/19 A2995 RMK AO2 SLP133 MIFG SW-W T01940194 10256 20194 50003
KCVG 180452Z 00000KT 10SM CLR 21/20 A2995 RMK AO2 SLP133 T02060200 402720150
KCVG 180352Z 00000KT 10SM CLR 21/21 A2995 RMK AO2 SLP132 T02110206
KCVG 180252Z 27006KT 10SM FEW080 22/21 A2994 RMK AO2 SLP130 T02220211 51015
KCVG 180152Z 00000KT 10SM BKN070 23/22 A2993 RMK AO2 SLP126 T02330217
KCVG 180052Z 25005KT 10SM OVC110 24/22 A2991 RMK AO2 SLP119 T02440222
KCVG 172352Z 25007KT 10SM SCT046 BKN100 BKN250 26/22 A2990 RMK AO2 SLP114 T02560217 10272 20233 53004
KCVG 172252Z 25004KT 10SM FEW025 BKN100 BKN250 26/22 A2989 RMK AO2 SLP111 T02610222
KCVG 172152Z 28005KT 10SM FEW020 SCT100 BKN250 26/22 A2988 RMK AO2 SLP109 T02610222
KCVG 172052Z 28007KT 10SM FEW020 BKN090 BKN250 26/22 A2988 RMK AO2 SLP109 T02560222 56012
KCVG 171952Z 28007KT 10SM FEW008 BKN090 BKN200 24/22 A2990 RMK AO2 SLP114 T02390222
KCVG 171852Z 31007KT 10SM FEW009 BKN100 OVC150 23/22 A2991 RMK AO2 SLP118 T02330222
KCVG 171825Z 32009KT 10SM SCT009 OVC100 24/22 A2991 RMK AO2 T02390217
KCVG 171752Z 32007KT 10SM BKN007 OVC041 23/22 A2992 RMK AO2 RAE1653 SLP122 P0000 60014 T02330222 10233 20211 58003
KCVG 171720Z 34009KT 8SM BKN007 BKN043 OVC060 23/22 A2993 RMK AO2 RAE1653 P0000 T02280217
KCVG 171652Z 33008KT 8SM -RA SCT006 BKN055 OVC090 23/22 A2993 RMK AO2 SLP124 P0001 T02280222
KCVG 171552Z 34008KT 5SM -RA BR FEW006 BKN070 OVC090 22/22 A2993 RMK AO2 SLP126 FEW V SCT P0004 T02220217
KCVG 171452Z 36007KT 5SM -RA BR FEW009 SCT037 OVC075 22/21 A2993 RMK AO2 SLP125 P0007 60009 T02170211 52006 $
KCVG 171425Z 01008KT 6SM -RA BR FEW008 SCT043 OVC095 22/21 A2993 RMK AO2 CIG 075 36R P0002 T02170211 $
KCVG 171352Z 01009KT 7SM -RA BKN046 OVC070 22/21 A2992 RMK AO2 SLP123 P0001 T02170211
KCVG 171252Z 02009KT 10SM -RA SCT055 OVC080 22/21 A2992 RMK AO2 SLP122 P0001 T02170206
KCVG 171152Z 03010KT 6SM -RA BR SCT080 BKN110 OVC130 21/21 A2991 RMK AO2 SLP119 P0004 60006 70006 T02110206 10239 20211 53001 $
KCVG 171052Z 03009KT 8SM -RA FEW085 SCT130 OVC150 22/21 A2991 RMK AO2 SLP117 P0002 T02170206 $
KCVG 170952Z 03010KT 10SM -RA FEW095 OVC140 23/20 A2991 RMK AO2 RAB0856 SLP118 P0001 T02280200 PNO $